sensor_id;sensor_type;location;lat;lon;timestamp;temperature;humidity
53268;DHT22;39156;51.176;6.738;2024-01-15T00:01:51;1.10;83.30
53268;DHT22;39156;51.176;6.738;2024-01-15T00:04:17;1.10;83.60
53268;DHT22;39156;51.176;6.738;2024-01-15T00:06:42;1.20;83.60
53268;DHT22;39156;51.176;6.738;2024-01-15T00:09:08;1.20;83.30
53268;DHT22;39156;51.176;6.738;2024-01-15T00:11:34;1.20;83.40
53268;DHT22;39156;51.176;6.738;2024-01-15T00:13:59;1.20;83.00
53268;DHT22;39156;51.176;6.738;2024-01-15T00:16:25;1.10;82.80
53268;DHT22;39156;51.176;6.738;2024-01-15T00:18:51;1.00;83.20
53268;DHT22;39156;51.176;6.738;2024-01-15T00:21:16;1.00;83.30
53268;DHT22;39156;51.176;6.738;2024-01-15T00:23:42;1.00;83.10
53268;DHT22;39156;51.176;6.738;2024-01-15T00:26:09;1.00;83.40
53268;DHT22;39156;51.176;6.738;2024-01-15T00:28:36;1.00;83.90
53268;DHT22;39156;51.176;6.738;2024-01-15T00:31:02;1.00;83.90
53268;DHT22;39156;51.176;6.738;2024-01-15T00:33:27;0.90;84.30
53268;DHT22;39156;51.176;6.738;2024-01-15T00:35:53;0.90;84.10
53268;DHT22;39156;51.176;6.738;2024-01-15T00:38:19;0.90;83.40
53268;DHT22;39156;51.176;6.738;2024-01-15T00:40:45;0.80;83.60
53268;DHT22;39156;51.176;6.738;2024-01-15T00:43:11;0.90;84.10
53268;DHT22;39156;51.176;6.738;2024-01-15T00:45:36;0.80;83.80
53268;DHT22;39156;51.176;6.738;2024-01-15T00:48:02;0.90;84.10
53268;DHT22;39156;51.176;6.738;2024-01-15T00:50:28;0.80;84.00
53268;DHT22;39156;51.176;6.738;2024-01-15T00:52:54;0.90;84.70
53268;DHT22;39156;51.176;6.738;2024-01-15T00:55:20;0.80;84.50
53268;DHT22;39156;51.176;6.738;2024-01-15T00:57:45;0.90;85.20
53268;DHT22;39156;51.176;6.738;2024-01-15T01:00:11;0.90;84.80
53268;DHT22;39156;51.176;6.738;2024-01-15T01:02:37;0.90;85.10
53268;DHT22;39156;51.176;6.738;2024-01-15T01:05:03;0.80;84.90
53268;DHT22;39156;51.176;6.738;2024-01-15T01:07:29;0.90;84.40
53268;DHT22;39156;51.176;6.738;2024-01-15T01:09:54;0.80;84.70
53268;DHT22;39156;51.176;6.738;2024-01-15T01:12:20;1.00;84.40
53268;DHT22;39156;51.176;6.738;2024-01-15T01:14:46;0.90;84.70
53268;DHT22;39156;51.176;6.738;2024-01-15T01:17:12;0.90;84.70
53268;DHT22;39156;51.176;6.738;2024-01-15T01:19:37;0.90;84.90
53268;DHT22;39156;51.176;6.738;2024-01-15T01:22:03;0.90;84.90
53268;DHT22;39156;51.176;6.738;2024-01-15T01:24:29;1.00;85.10
53268;DHT22;39156;51.176;6.738;2024-01-15T01:26:54;0.90;85.50
53268;DHT22;39156;51.176;6.738;2024-01-15T01:29:20;1.00;85.00
53268;DHT22;39156;51.176;6.738;2024-01-15T01:31:46;1.10;85.20
53268;DHT22;39156;51.176;6.738;2024-01-15T01:34:15;1.00;84.80
53268;DHT22;39156;51.176;6.738;2024-01-15T01:36:41;1.00;85.20
53268;DHT22;39156;51.176;6.738;2024-01-15T01:39:07;1.00;84.80
53268;DHT22;39156;51.176;6.738;2024-01-15T01:41:34;1.00;85.00
53268;DHT22;39156;51.176;6.738;2024-01-15T01:44:00;1.10;85.20
53268;DHT22;39156;51.176;6.738;2024-01-15T01:46:25;1.00;85.50
53268;DHT22;39156;51.176;6.738;2024-01-15T01:48:52;1.00;85.60
53268;DHT22;39156;51.176;6.738;2024-01-15T01:51:18;1.00;85.40
53268;DHT22;39156;51.176;6.738;2024-01-15T01:53:46;1.00;85.00
53268;DHT22;39156;51.176;6.738;2024-01-15T01:56:11;1.10;85.30
53268;DHT22;39156;51.176;6.738;2024-01-15T01:58:38;1.10;85.80
53268;DHT22;39156;51.176;6.738;2024-01-15T02:01:04;1.10;85.60
53268;DHT22;39156;51.176;6.738;2024-01-15T02:03:30;1.10;85.50
53268;DHT22;39156;51.176;6.738;2024-01-15T02:05:56;1.10;84.80
53268;DHT22;39156;51.176;6.738;2024-01-15T02:08:22;1.10;84.40
53268;DHT22;39156;51.176;6.738;2024-01-15T02:10:47;1.10;84.60
53268;DHT22;39156;51.176;6.738;2024-01-15T02:13:13;1.10;85.00
53268;DHT22;39156;51.176;6.738;2024-01-15T02:15:39;1.10;84.90
53268;DHT22;39156;51.176;6.738;2024-01-15T02:18:05;1.10;84.60
53268;DHT22;39156;51.176;6.738;2024-01-15T02:20:33;1.10;85.00
53268;DHT22;39156;51.176;6.738;2024-01-15T02:23:16;1.30;85.20
53268;DHT22;39156;51.176;6.738;2024-01-15T02:25:42;1.20;85.30
53268;DHT22;39156;51.176;6.738;2024-01-15T02:28:13;1.20;85.10
53268;DHT22;39156;51.176;6.738;2024-01-15T02:30:40;1.10;85.00
53268;DHT22;39156;51.176;6.738;2024-01-15T02:33:07;1.10;85.10
53268;DHT22;39156;51.176;6.738;2024-01-15T02:35:33;1.20;85.00
53268;DHT22;39156;51.176;6.738;2024-01-15T02:37:59;1.30;85.50
53268;DHT22;39156;51.176;6.738;2024-01-15T02:40:24;1.20;85.50
53268;DHT22;39156;51.176;6.738;2024-01-15T02:42:50;1.30;85.30
53268;DHT22;39156;51.176;6.738;2024-01-15T02:45:16;1.30;85.50
53268;DHT22;39156;51.176;6.738;2024-01-15T02:47:42;1.30;85.30
53268;DHT22;39156;51.176;6.738;2024-01-15T02:50:08;1.30;85.20
53268;DHT22;39156;51.176;6.738;2024-01-15T02:52:34;1.30;85.20
53268;DHT22;39156;51.176;6.738;2024-01-15T02:54:59;1.40;85.20
53268;DHT22;39156;51.176;6.738;2024-01-15T02:57:25;1.30;84.50
53268;DHT22;39156;51.176;6.738;2024-01-15T02:59:50;1.30;84.50
53268;DHT22;39156;51.176;6.738;2024-01-15T03:02:16;1.30;84.60
53268;DHT22;39156;51.176;6.738;2024-01-15T03:04:44;1.30;84.70
53268;DHT22;39156;51.176;6.738;2024-01-15T03:07:10;1.30;85.10
53268;DHT22;39156;51.176;6.738;2024-01-15T03:09:35;1.30;84.90
53268;DHT22;39156;51.176;6.738;2024-01-15T03:12:01;1.30;84.90
53268;DHT22;39156;51.176;6.738;2024-01-15T03:14:27;1.30;84.90
53268;DHT22;39156;51.176;6.738;2024-01-15T03:16:53;1.40;84.80
53268;DHT22;39156;51.176;6.738;2024-01-15T03:19:18;1.30;84.70
53268;DHT22;39156;51.176;6.738;2024-01-15T03:21:44;1.40;84.80
53268;DHT22;39156;51.176;6.738;2024-01-15T03:24:10;1.40;85.30
53268;DHT22;39156;51.176;6.738;2024-01-15T03:26:35;1.30;84.90
53268;DHT22;39156;51.176;6.738;2024-01-15T03:29:01;1.30;84.90
53268;DHT22;39156;51.176;6.738;2024-01-15T03:31:26;1.30;85.20
53268;DHT22;39156;51.176;6.738;2024-01-15T03:33:52;1.40;85.10
53268;DHT22;39156;51.176;6.738;2024-01-15T03:36:18;1.40;85.20
53268;DHT22;39156;51.176;6.738;2024-01-15T03:38:43;1.50;85.50
53268;DHT22;39156;51.176;6.738;2024-01-15T03:41:09;1.40;85.50
53268;DHT22;39156;51.176;6.738;2024-01-15T03:43:34;1.40;85.50
53268;DHT22;39156;51.176;6.738;2024-01-15T03:46:00;0.70;85.40
53268;DHT22;39156;51.176;6.738;2024-01-15T03:48:27;1.50;86.00
53268;DHT22;39156;51.176;6.738;2024-01-15T03:50:53;1.40;85.60
53268;DHT22;39156;51.176;6.738;2024-01-15T03:53:18;1.50;85.40
53268;DHT22;39156;51.176;6.738;2024-01-15T03:55:44;1.50;85.50
53268;DHT22;39156;51.176;6.738;2024-01-15T03:58:09;1.50;85.60
53268;DHT22;39156;51.176;6.738;2024-01-15T04:00:35;1.40;85.40
53268;DHT22;39156;51.176;6.738;2024-01-15T04:03:01;1.60;85.70
53268;DHT22;39156;51.176;6.738;2024-01-15T04:05:26;1.50;85.40
53268;DHT22;39156;51.176;6.738;2024-01-15T04:07:52;1.50;85.50
53268;DHT22;39156;51.176;6.738;2024-01-15T04:10:17;1.50;85.60
53268;DHT22;39156;51.176;6.738;2024-01-15T04:12:43;1.40;85.60
53268;DHT22;39156;51.176;6.738;2024-01-15T04:15:11;1.50;85.50
53268;DHT22;39156;51.176;6.738;2024-01-15T04:17:37;1.50;85.50
53268;DHT22;39156;51.176;6.738;2024-01-15T04:20:03;1.60;85.30
53268;DHT22;39156;51.176;6.738;2024-01-15T04:22:29;1.50;85.30
53268;DHT22;39156;51.176;6.738;2024-01-15T04:24:55;1.60;85.10
53268;DHT22;39156;51.176;6.738;2024-01-15T04:27:20;1.50;85.10
53268;DHT22;39156;51.176;6.738;2024-01-15T04:29:46;1.50;85.00
53268;DHT22;39156;51.176;6.738;2024-01-15T04:32:12;1.60;84.90
53268;DHT22;39156;51.176;6.738;2024-01-15T04:34:37;1.60;85.00
53268;DHT22;39156;51.176;6.738;2024-01-15T04:37:03;1.50;84.90
53268;DHT22;39156;51.176;6.738;2024-01-15T04:39:28;1.50;85.00
53268;DHT22;39156;51.176;6.738;2024-01-15T04:41:54;1.50;85.00
53268;DHT22;39156;51.176;6.738;2024-01-15T04:44:20;1.50;85.00
53268;DHT22;39156;51.176;6.738;2024-01-15T04:46:45;1.50;85.00
53268;DHT22;39156;51.176;6.738;2024-01-15T04:49:11;1.50;84.70
53268;DHT22;39156;51.176;6.738;2024-01-15T04:51:37;1.50;84.80
53268;DHT22;39156;51.176;6.738;2024-01-15T04:54:03;1.60;85.10
53268;DHT22;39156;51.176;6.738;2024-01-15T04:56:29;1.50;85.10
53268;DHT22;39156;51.176;6.738;2024-01-15T04:58:54;1.50;84.80
53268;DHT22;39156;51.176;6.738;2024-01-15T05:01:20;1.60;84.50
53268;DHT22;39156;51.176;6.738;2024-01-15T05:03:46;1.50;84.20
53268;DHT22;39156;51.176;6.738;2024-01-15T05:06:11;1.50;84.50
53268;DHT22;39156;51.176;6.738;2024-01-15T05:08:37;1.60;84.70
53268;DHT22;39156;51.176;6.738;2024-01-15T05:11:03;1.60;84.30
53268;DHT22;39156;51.176;6.738;2024-01-15T05:13:28;1.60;84.50
53268;DHT22;39156;51.176;6.738;2024-01-15T05:15:54;1.50;84.60
53268;DHT22;39156;51.176;6.738;2024-01-15T05:18:19;1.50;84.80
53268;DHT22;39156;51.176;6.738;2024-01-15T05:20:45;1.60;85.00
53268;DHT22;39156;51.176;6.738;2024-01-15T05:23:11;1.70;85.10
53268;DHT22;39156;51.176;6.738;2024-01-15T05:25:36;1.60;84.70
53268;DHT22;39156;51.176;6.738;2024-01-15T05:28:02;1.50;84.70
53268;DHT22;39156;51.176;6.738;2024-01-15T05:30:28;1.70;84.80
53268;DHT22;39156;51.176;6.738;2024-01-15T05:32:53;1.60;84.90
53268;DHT22;39156;51.176;6.738;2024-01-15T05:35:19;1.70;84.80
53268;DHT22;39156;51.176;6.738;2024-01-15T05:37:45;1.60;84.90
53268;DHT22;39156;51.176;6.738;2024-01-15T05:40:11;1.60;84.40
53268;DHT22;39156;51.176;6.738;2024-01-15T05:42:38;1.60;84.60
53268;DHT22;39156;51.176;6.738;2024-01-15T05:45:04;1.70;84.30
53268;DHT22;39156;51.176;6.738;2024-01-15T05:47:30;1.60;84.30
53268;DHT22;39156;51.176;6.738;2024-01-15T05:49:56;1.60;84.20
53268;DHT22;39156;51.176;6.738;2024-01-15T05:52:22;1.70;84.30
53268;DHT22;39156;51.176;6.738;2024-01-15T05:54:48;1.70;84.40
53268;DHT22;39156;51.176;6.738;2024-01-15T05:57:14;1.70;84.40
53268;DHT22;39156;51.176;6.738;2024-01-15T05:59:40;1.70;84.40
53268;DHT22;39156;51.176;6.738;2024-01-15T06:02:06;1.60;84.50
53268;DHT22;39156;51.176;6.738;2024-01-15T06:04:31;1.60;84.30
53268;DHT22;39156;51.176;6.738;2024-01-15T06:06:57;1.70;84.30
53268;DHT22;39156;51.176;6.738;2024-01-15T06:09:22;1.80;84.20
53268;DHT22;39156;51.176;6.738;2024-01-15T06:11:48;1.70;84.40
53268;DHT22;39156;51.176;6.738;2024-01-15T06:14:14;1.70;84.40
53268;DHT22;39156;51.176;6.738;2024-01-15T06:16:39;1.70;84.20
53268;DHT22;39156;51.176;6.738;2024-01-15T06:19:05;1.70;84.30
53268;DHT22;39156;51.176;6.738;2024-01-15T06:21:30;1.70;84.10
53268;DHT22;39156;51.176;6.738;2024-01-15T06:23:56;1.70;84.40
53268;DHT22;39156;51.176;6.738;2024-01-15T06:26:22;1.70;84.50
53268;DHT22;39156;51.176;6.738;2024-01-15T06:28:48;1.70;84.70
53268;DHT22;39156;51.176;6.738;2024-01-15T06:31:14;1.60;84.60
53268;DHT22;39156;51.176;6.738;2024-01-15T06:33:39;1.60;84.50
53268;DHT22;39156;51.176;6.738;2024-01-15T06:36:05;1.70;84.50
53268;DHT22;39156;51.176;6.738;2024-01-15T06:38:31;1.90;84.60
53268;DHT22;39156;51.176;6.738;2024-01-15T06:40:56;1.60;84.20
53268;DHT22;39156;51.176;6.738;2024-01-15T06:43:22;1.80;84.40
53268;DHT22;39156;51.176;6.738;2024-01-15T06:45:48;1.70;84.40
53268;DHT22;39156;51.176;6.738;2024-01-15T06:48:13;1.80;84.70
53268;DHT22;39156;51.176;6.738;2024-01-15T06:50:44;1.70;84.50
53268;DHT22;39156;51.176;6.738;2024-01-15T06:53:10;1.70;84.70
53268;DHT22;39156;51.176;6.738;2024-01-15T06:55:36;1.70;84.60
53268;DHT22;39156;51.176;6.738;2024-01-15T06:58:02;1.80;84.80
53268;DHT22;39156;51.176;6.738;2024-01-15T07:00:28;1.70;84.50
53268;DHT22;39156;51.176;6.738;2024-01-15T07:02:54;1.70;84.70
53268;DHT22;39156;51.176;6.738;2024-01-15T07:05:23;1.70;84.80
53268;DHT22;39156;51.176;6.738;2024-01-15T07:07:48;1.70;84.70
53268;DHT22;39156;51.176;6.738;2024-01-15T07:10:14;1.70;84.80
53268;DHT22;39156;51.176;6.738;2024-01-15T07:12:43;1.80;85.10
53268;DHT22;39156;51.176;6.738;2024-01-15T07:15:09;1.70;85.20
53268;DHT22;39156;51.176;6.738;2024-01-15T07:17:35;1.80;85.20
53268;DHT22;39156;51.176;6.738;2024-01-15T07:20:01;1.70;84.90
53268;DHT22;39156;51.176;6.738;2024-01-15T07:22:27;1.80;84.50
53268;DHT22;39156;51.176;6.738;2024-01-15T07:24:52;1.80;84.60
53268;DHT22;39156;51.176;6.738;2024-01-15T07:27:18;1.70;84.80
53268;DHT22;39156;51.176;6.738;2024-01-15T07:29:44;1.90;85.00
53268;DHT22;39156;51.176;6.738;2024-01-15T07:32:09;1.80;85.00
53268;DHT22;39156;51.176;6.738;2024-01-15T07:34:35;1.90;85.00
53268;DHT22;39156;51.176;6.738;2024-01-15T07:37:01;1.90;85.00
53268;DHT22;39156;51.176;6.738;2024-01-15T07:39:26;1.70;84.80
53268;DHT22;39156;51.176;6.738;2024-01-15T07:41:54;1.80;85.00
53268;DHT22;39156;51.176;6.738;2024-01-15T07:44:19;1.70;85.10
53268;DHT22;39156;51.176;6.738;2024-01-15T07:46:45;1.70;85.10
53268;DHT22;39156;51.176;6.738;2024-01-15T07:49:11;1.80;84.90
53268;DHT22;39156;51.176;6.738;2024-01-15T07:51:37;1.80;85.10
53268;DHT22;39156;51.176;6.738;2024-01-15T07:54:03;1.80;85.20
53268;DHT22;39156;51.176;6.738;2024-01-15T07:56:28;1.90;85.30
53268;DHT22;39156;51.176;6.738;2024-01-15T07:58:54;1.90;85.10
53268;DHT22;39156;51.176;6.738;2024-01-15T08:01:20;1.90;84.90
53268;DHT22;39156;51.176;6.738;2024-01-15T08:03:46;1.90;84.90
53268;DHT22;39156;51.176;6.738;2024-01-15T08:06:12;1.80;84.70
53268;DHT22;39156;51.176;6.738;2024-01-15T08:08:38;1.90;84.80
53268;DHT22;39156;51.176;6.738;2024-01-15T08:11:04;1.90;84.80
53268;DHT22;39156;51.176;6.738;2024-01-15T08:13:30;1.90;84.90
53268;DHT22;39156;51.176;6.738;2024-01-15T08:15:56;1.90;85.00
53268;DHT22;39156;51.176;6.738;2024-01-15T08:18:21;1.90;84.90
53268;DHT22;39156;51.176;6.738;2024-01-15T08:20:47;2.00;84.80
53268;DHT22;39156;51.176;6.738;2024-01-15T08:23:13;1.90;84.80
53268;DHT22;39156;51.176;6.738;2024-01-15T08:25:38;1.90;84.90
53268;DHT22;39156;51.176;6.738;2024-01-15T08:28:04;2.00;85.00
53268;DHT22;39156;51.176;6.738;2024-01-15T08:30:30;1.90;84.90
53268;DHT22;39156;51.176;6.738;2024-01-15T08:32:55;1.90;85.10
53268;DHT22;39156;51.176;6.738;2024-01-15T08:35:22;1.90;85.10
53268;DHT22;39156;51.176;6.738;2024-01-15T08:37:51;1.90;84.80
53268;DHT22;39156;51.176;6.738;2024-01-15T08:40:18;1.80;84.80
53268;DHT22;39156;51.176;6.738;2024-01-15T08:42:44;1.90;84.50
53268;DHT22;39156;51.176;6.738;2024-01-15T08:45:10;1.90;84.50
53268;DHT22;39156;51.176;6.738;2024-01-15T08:47:36;0.70;83.80
53268;DHT22;39156;51.176;6.738;2024-01-15T08:50:02;1.80;84.60
53268;DHT22;39156;51.176;6.738;2024-01-15T08:52:28;1.60;84.70
53268;DHT22;39156;51.176;6.738;2024-01-15T08:54:55;1.70;84.90
53268;DHT22;39156;51.176;6.738;2024-01-15T08:57:21;1.60;84.20
53268;DHT22;39156;51.176;6.738;2024-01-15T08:59:47;1.60;84.40
53268;DHT22;39156;51.176;6.738;2024-01-15T09:02:13;1.60;84.40
53268;DHT22;39156;51.176;6.738;2024-01-15T09:04:39;1.80;84.80
53268;DHT22;39156;51.176;6.738;2024-01-15T09:07:04;1.50;84.10
53268;DHT22;39156;51.176;6.738;2024-01-15T09:09:30;1.60;84.50
53268;DHT22;39156;51.176;6.738;2024-01-15T09:11:56;1.30;84.30
53268;DHT22;39156;51.176;6.738;2024-01-15T09:14:21;1.60;84.90
53268;DHT22;39156;51.176;6.738;2024-01-15T09:16:49;1.50;84.30
53268;DHT22;39156;51.176;6.738;2024-01-15T09:19:15;1.60;84.10
53268;DHT22;39156;51.176;6.738;2024-01-15T09:21:41;1.50;84.10
53268;DHT22;39156;51.176;6.738;2024-01-15T09:24:07;1.50;84.10
53268;DHT22;39156;51.176;6.738;2024-01-15T09:26:32;1.40;84.20
53268;DHT22;39156;51.176;6.738;2024-01-15T09:28:58;1.40;83.80
53268;DHT22;39156;51.176;6.738;2024-01-15T09:31:23;1.40;84.00
53268;DHT22;39156;51.176;6.738;2024-01-15T09:33:51;1.30;83.90
53268;DHT22;39156;51.176;6.738;2024-01-15T09:36:25;1.40;84.00
53268;DHT22;39156;51.176;6.738;2024-01-15T09:38:51;1.40;83.80
53268;DHT22;39156;51.176;6.738;2024-01-15T09:41:16;1.40;84.00
53268;DHT22;39156;51.176;6.738;2024-01-15T09:43:42;1.40;84.10
53268;DHT22;39156;51.176;6.738;2024-01-15T09:46:08;1.50;84.50
53268;DHT22;39156;51.176;6.738;2024-01-15T09:48:34;1.40;84.20
53268;DHT22;39156;51.176;6.738;2024-01-15T09:51:01;1.50;84.30
53268;DHT22;39156;51.176;6.738;2024-01-15T09:53:27;1.50;84.40
53268;DHT22;39156;51.176;6.738;2024-01-15T09:55:52;1.50;84.60
53268;DHT22;39156;51.176;6.738;2024-01-15T09:58:18;1.40;84.60
53268;DHT22;39156;51.176;6.738;2024-01-15T10:00:44;1.60;84.60
53268;DHT22;39156;51.176;6.738;2024-01-15T10:03:10;1.50;84.30
53268;DHT22;39156;51.176;6.738;2024-01-15T10:05:37;1.50;84.40
53268;DHT22;39156;51.176;6.738;2024-01-15T10:08:03;1.60;84.50
53268;DHT22;39156;51.176;6.738;2024-01-15T10:10:30;1.50;84.40
53268;DHT22;39156;51.176;6.738;2024-01-15T10:12:56;1.60;84.40
53268;DHT22;39156;51.176;6.738;2024-01-15T10:15:23;1.70;84.30
53268;DHT22;39156;51.176;6.738;2024-01-15T10:17:50;1.70;84.40
53268;DHT22;39156;51.176;6.738;2024-01-15T10:20:15;1.70;84.50
53268;DHT22;39156;51.176;6.738;2024-01-15T10:22:41;1.70;84.50
53268;DHT22;39156;51.176;6.738;2024-01-15T10:25:12;1.70;84.30
53268;DHT22;39156;51.176;6.738;2024-01-15T10:27:38;1.70;84.50
53268;DHT22;39156;51.176;6.738;2024-01-15T10:30:05;1.70;84.50
53268;DHT22;39156;51.176;6.738;2024-01-15T10:32:31;1.70;84.50
53268;DHT22;39156;51.176;6.738;2024-01-15T10:34:57;1.70;84.90
53268;DHT22;39156;51.176;6.738;2024-01-15T10:37:23;1.80;84.40
53268;DHT22;39156;51.176;6.738;2024-01-15T10:39:49;1.80;84.40
53268;DHT22;39156;51.176;6.738;2024-01-15T10:42:15;1.70;84.40
53268;DHT22;39156;51.176;6.738;2024-01-15T10:44:43;1.70;84.40
53268;DHT22;39156;51.176;6.738;2024-01-15T10:47:09;1.80;84.40
53268;DHT22;39156;51.176;6.738;2024-01-15T10:49:35;1.70;84.50
53268;DHT22;39156;51.176;6.738;2024-01-15T10:52:01;1.70;84.70
53268;DHT22;39156;51.176;6.738;2024-01-15T10:54:27;1.80;84.70
53268;DHT22;39156;51.176;6.738;2024-01-15T10:56:53;1.80;84.70
53268;DHT22;39156;51.176;6.738;2024-01-15T10:59:20;1.80;84.80
53268;DHT22;39156;51.176;6.738;2024-01-15T11:01:46;1.90;84.80
53268;DHT22;39156;51.176;6.738;2024-01-15T11:04:12;1.90;84.80
53268;DHT22;39156;51.176;6.738;2024-01-15T11:06:42;1.90;84.80
53268;DHT22;39156;51.176;6.738;2024-01-15T11:09:09;2.00;85.00
53268;DHT22;39156;51.176;6.738;2024-01-15T11:11:35;2.00;84.90
53268;DHT22;39156;51.176;6.738;2024-01-15T11:14:02;2.10;85.00
53268;DHT22;39156;51.176;6.738;2024-01-15T11:16:52;2.10;85.00
53268;DHT22;39156;51.176;6.738;2024-01-15T11:19:21;2.10;85.00
53268;DHT22;39156;51.176;6.738;2024-01-15T11:21:47;2.20;84.90
53268;DHT22;39156;51.176;6.738;2024-01-15T11:24:32;2.20;84.80
53268;DHT22;39156;51.176;6.738;2024-01-15T11:27:02;2.20;84.80
53268;DHT22;39156;51.176;6.738;2024-01-15T11:34:20;2.30;84.90
53268;DHT22;39156;51.176;6.738;2024-01-15T11:41:52;2.40;85.20
53268;DHT22;39156;51.176;6.738;2024-01-15T11:44:20;2.50;85.20
53268;DHT22;39156;51.176;6.738;2024-01-15T11:46:49;2.50;85.10
53268;DHT22;39156;51.176;6.738;2024-01-15T11:52:22;2.60;85.00
53268;DHT22;39156;51.176;6.738;2024-01-15T11:57:40;2.80;85.00
53268;DHT22;39156;51.176;6.738;2024-01-15T12:00:14;2.70;84.80
53268;DHT22;39156;51.176;6.738;2024-01-15T12:02:44;2.80;84.80
53268;DHT22;39156;51.176;6.738;2024-01-15T12:05:11;2.80;84.80
53268;DHT22;39156;51.176;6.738;2024-01-15T12:07:38;2.90;85.00
53268;DHT22;39156;51.176;6.738;2024-01-15T12:10:08;2.90;85.00
53268;DHT22;39156;51.176;6.738;2024-01-15T12:15:11;3.10;85.10
53268;DHT22;39156;51.176;6.738;2024-01-15T12:17:38;3.20;85.00
53268;DHT22;39156;51.176;6.738;2024-01-15T12:20:07;3.10;84.80
53268;DHT22;39156;51.176;6.738;2024-01-15T12:22:33;3.10;84.70
53268;DHT22;39156;51.176;6.738;2024-01-15T12:24:58;3.20;84.20
53268;DHT22;39156;51.176;6.738;2024-01-15T12:27:24;3.20;84.10
53268;DHT22;39156;51.176;6.738;2024-01-15T12:29:50;3.20;83.80
53268;DHT22;39156;51.176;6.738;2024-01-15T12:32:15;3.20;83.90
53268;DHT22;39156;51.176;6.738;2024-01-15T12:34:42;3.20;84.00
53268;DHT22;39156;51.176;6.738;2024-01-15T12:37:08;3.10;83.90
53268;DHT22;39156;51.176;6.738;2024-01-15T12:39:34;3.20;83.80
53268;DHT22;39156;51.176;6.738;2024-01-15T12:42:01;3.10;83.80
53268;DHT22;39156;51.176;6.738;2024-01-15T12:44:27;3.10;83.80
53268;DHT22;39156;51.176;6.738;2024-01-15T12:46:53;3.10;83.60
53268;DHT22;39156;51.176;6.738;2024-01-15T12:49:19;3.10;83.80
53268;DHT22;39156;51.176;6.738;2024-01-15T12:51:56;3.10;83.80
53268;DHT22;39156;51.176;6.738;2024-01-15T12:54:22;3.20;83.90
53268;DHT22;39156;51.176;6.738;2024-01-15T12:56:49;3.20;83.70
53268;DHT22;39156;51.176;6.738;2024-01-15T12:59:15;3.20;83.70
53268;DHT22;39156;51.176;6.738;2024-01-15T13:01:42;3.10;83.60
53268;DHT22;39156;51.176;6.738;2024-01-15T13:04:07;3.10;83.50
53268;DHT22;39156;51.176;6.738;2024-01-15T13:06:36;3.10;83.60
53268;DHT22;39156;51.176;6.738;2024-01-15T13:09:04;3.00;83.60
53268;DHT22;39156;51.176;6.738;2024-01-15T13:11:35;3.00;83.40
53268;DHT22;39156;51.176;6.738;2024-01-15T13:14:01;3.00;83.40
53268;DHT22;39156;51.176;6.738;2024-01-15T13:16:26;3.00;83.60
53268;DHT22;39156;51.176;6.738;2024-01-15T13:18:55;3.10;83.50
53268;DHT22;39156;51.176;6.738;2024-01-15T13:21:21;3.10;83.70
53268;DHT22;39156;51.176;6.738;2024-01-15T13:23:47;3.00;83.60
53268;DHT22;39156;51.176;6.738;2024-01-15T13:26:13;3.00;83.60
53268;DHT22;39156;51.176;6.738;2024-01-15T13:28:39;3.00;83.50
53268;DHT22;39156;51.176;6.738;2024-01-15T13:31:05;3.10;83.50
53268;DHT22;39156;51.176;6.738;2024-01-15T13:33:30;3.00;83.20
53268;DHT22;39156;51.176;6.738;2024-01-15T13:35:56;3.00;83.40
53268;DHT22;39156;51.176;6.738;2024-01-15T13:38:21;2.90;83.20
53268;DHT22;39156;51.176;6.738;2024-01-15T13:40:47;3.00;83.80
53268;DHT22;39156;51.176;6.738;2024-01-15T13:43:13;3.00;83.20
53268;DHT22;39156;51.176;6.738;2024-01-15T13:45:40;3.00;83.30
53268;DHT22;39156;51.176;6.738;2024-01-15T13:48:07;2.90;83.10
53268;DHT22;39156;51.176;6.738;2024-01-15T13:50:34;2.80;82.90
53268;DHT22;39156;51.176;6.738;2024-01-15T13:53:02;2.80;82.90
53268;DHT22;39156;51.176;6.738;2024-01-15T13:55:29;2.80;83.00
53268;DHT22;39156;51.176;6.738;2024-01-15T13:57:55;2.70;83.00
53268;DHT22;39156;51.176;6.738;2024-01-15T14:00:20;2.70;83.10
53268;DHT22;39156;51.176;6.738;2024-01-15T14:02:47;2.70;83.10
53268;DHT22;39156;51.176;6.738;2024-01-15T14:05:13;2.80;83.10
53268;DHT22;39156;51.176;6.738;2024-01-15T14:07:38;2.60;83.00
53268;DHT22;39156;51.176;6.738;2024-01-15T14:10:08;2.70;83.00
53268;DHT22;39156;51.176;6.738;2024-01-15T14:12:34;2.70;83.00
53268;DHT22;39156;51.176;6.738;2024-01-15T14:15:01;2.60;83.00
53268;DHT22;39156;51.176;6.738;2024-01-15T14:17:28;2.60;83.10
53268;DHT22;39156;51.176;6.738;2024-01-15T14:19:53;2.50;83.10
53268;DHT22;39156;51.176;6.738;2024-01-15T14:22:19;2.60;83.20
53268;DHT22;39156;51.176;6.738;2024-01-15T14:24:44;2.60;83.30
53268;DHT22;39156;51.176;6.738;2024-01-15T14:27:10;2.60;83.30
53268;DHT22;39156;51.176;6.738;2024-01-15T14:29:36;2.60;83.40
53268;DHT22;39156;51.176;6.738;2024-01-15T14:32:02;2.60;83.40
53268;DHT22;39156;51.176;6.738;2024-01-15T14:34:28;2.70;83.40
53268;DHT22;39156;51.176;6.738;2024-01-15T14:36:53;2.60;83.40
53268;DHT22;39156;51.176;6.738;2024-01-15T14:39:20;2.60;83.20
53268;DHT22;39156;51.176;6.738;2024-01-15T14:41:46;2.70;83.20
53268;DHT22;39156;51.176;6.738;2024-01-15T14:44:12;2.70;83.10
53268;DHT22;39156;51.176;6.738;2024-01-15T14:46:38;2.60;83.00
53268;DHT22;39156;51.176;6.738;2024-01-15T14:49:03;2.60;83.00
53268;DHT22;39156;51.176;6.738;2024-01-15T14:51:30;2.60;83.00
53268;DHT22;39156;51.176;6.738;2024-01-15T14:53:55;2.60;83.00
53268;DHT22;39156;51.176;6.738;2024-01-15T14:56:21;2.50;82.90
53268;DHT22;39156;51.176;6.738;2024-01-15T14:58:47;2.50;82.90
53268;DHT22;39156;51.176;6.738;2024-01-15T15:01:12;2.50;82.90
53268;DHT22;39156;51.176;6.738;2024-01-15T15:03:38;2.50;82.90
53268;DHT22;39156;51.176;6.738;2024-01-15T15:06:04;2.60;83.00
53268;DHT22;39156;51.176;6.738;2024-01-15T15:08:30;2.50;82.90
53268;DHT22;39156;51.176;6.738;2024-01-15T15:10:55;2.40;82.80
53268;DHT22;39156;51.176;6.738;2024-01-15T15:13:22;2.40;82.70
53268;DHT22;39156;51.176;6.738;2024-01-15T15:15:48;2.40;82.70
53268;DHT22;39156;51.176;6.738;2024-01-15T15:18:14;2.40;82.80
53268;DHT22;39156;51.176;6.738;2024-01-15T15:20:39;2.40;82.70
53268;DHT22;39156;51.176;6.738;2024-01-15T15:23:05;2.30;82.60
53268;DHT22;39156;51.176;6.738;2024-01-15T15:25:34;2.10;82.60
53268;DHT22;39156;51.176;6.738;2024-01-15T15:28:01;2.10;82.80
53268;DHT22;39156;51.176;6.738;2024-01-15T15:30:27;2.10;82.80
53268;DHT22;39156;51.176;6.738;2024-01-15T15:32:52;2.00;82.70
53268;DHT22;39156;51.176;6.738;2024-01-15T15:35:18;2.00;82.70
53268;DHT22;39156;51.176;6.738;2024-01-15T15:37:44;2.00;82.60
53268;DHT22;39156;51.176;6.738;2024-01-15T15:40:09;2.00;82.60
53268;DHT22;39156;51.176;6.738;2024-01-15T15:42:36;1.80;82.90
53268;DHT22;39156;51.176;6.738;2024-01-15T15:45:02;1.90;82.80
53268;DHT22;39156;51.176;6.738;2024-01-15T15:47:28;1.80;82.90
53268;DHT22;39156;51.176;6.738;2024-01-15T15:49:54;2.30;83.20
53268;DHT22;39156;51.176;6.738;2024-01-15T15:52:19;1.60;82.90
53268;DHT22;39156;51.176;6.738;2024-01-15T15:54:45;1.70;82.60
53268;DHT22;39156;51.176;6.738;2024-01-15T15:57:11;1.60;82.70